Delta Virtual Airport Information Service

Hong Kong International Airport

ICAO: VHHH Country: Hong Kong
Latitude: 22.3089 Longitude: 113.915
Latest Arrival : UAL2763 (1A) (KSFO-VHHH) Latest Departure : UPS63 (1B) (VHHH-PANC)


WX CaptureLIVE
Data provided by noaa.gov | Fetched at 23:27:44

METAR : VHHH 250400Z 22008KT 6000 +TSRA FEW008 FEW013CB SCT025 24/24 Q1010 NOSIG

TAF : VHHH 250334Z 2504/2606 12010KT 7000 FEW025 SCT040 TX28/2506Z TX29/2606Z TN23/2522Z TEMPO 2504/2507 24025G35KT 1000 +TSRA +SHRA FEW010CB SCT020 BKN045 BECMG 2516/2518 21010KT TEMPO 2516/2520 4000 SHRA FEW010CB SCT020 TEMPO 2520/2602 VRB15G25KT 3500 -TSRA SHRA FEW010CB SCT015 TEMPO 2602/2606 4000 SHRA FEW010CB SCT020


Runway Data for VHHH
Data provided by openaviationdata.com

Runway ID Mag Var Hdg Length Elevation Surface ILS Freq ILS Id ILS Slope
07L -2 72° 12431 ft 28 ft Asphalt 111.1 IZSL 3
07R -2 72° 12431 ft 28 ft Asphalt 109.3 ISR 3
25L -2 252° 12431 ft 28 ft Asphalt 108.9 IFL 3
25R -2 252° 12431 ft 28 ft Asphalt 110.9 ITFR 3

Hong Kong International Airport, Hong Kong
Use only for reference purposes



Not for navigational purposes.